Time;durP1;ratioP1;P1;durP2;ratioP2;P2;SDS_P1;SDS_P2;PMS_P1;PMS_P2;Temp;Humidity;BMP_temperature;BMP_pressure;BME280_temperature;BME280_humidity;BME280_pressure;Samples;Min_cycle;Max_cycle;Signal;HPM_P1;HPM_P2
2021/06/18 00:02:15;;;;;;;8.95;7.07;;;;;;;17.09;100.00;97051.03;5063898;28;20037;-62
2021/06/18 00:04:41;;;;;;;7.03;6.35;;;;;;;16.73;100.00;97013.34;5046095;28;20119;-63
2021/06/18 00:07:06;;;;;;;9.35;7.28;;;;;;;16.47;100.00;97004.34;5045873;28;20526;-62
2021/06/18 00:09:32;;;;;;;9.70;7.57;;;;;;;16.78;100.00;97063.28;5064361;28;20042;-62
2021/06/18 00:11:57;;;;;;;10.70;8.23;;;;;;;16.70;100.00;97062.53;5063912;28;20039;-63
2021/06/18 00:14:23;;;;;;;11.18;7.47;;;;;;;16.67;100.00;97062.56;5064257;28;20036;-61
2021/06/18 00:16:48;;;;;;;14.00;8.27;;;;;;;16.43;100.00;97020.31;5063915;28;20434;-60
2021/06/18 00:19:14;;;;;;;11.55;7.55;;;;;;;16.82;100.00;97047.28;5046147;28;20314;-62
2021/06/18 00:21:39;;;;;;;14.55;7.93;;;;;;;16.88;100.00;97068.00;5045291;28;20063;-61
2021/06/18 00:24:05;;;;;;;14.35;7.60;;;;;;;16.80;100.00;97052.47;5045269;28;20028;-64
2021/06/18 00:26:31;;;;;;;14.05;7.00;;;;;;;16.72;100.00;97053.72;5063290;28;20048;-63
2021/06/18 00:28:56;;;;;;;11.32;7.47;;;;;;;16.21;100.00;96998.50;5063915;28;20033;-62
2021/06/18 00:31:22;;;;;;;8.95;7.22;;;;;;;16.47;100.00;97049.06;5064651;28;20044;-62
2021/06/18 00:33:47;;;;;;;8.85;7.68;;;;;;;16.48;100.00;97038.69;5045702;28;20468;-62
2021/06/18 00:36:13;;;;;;;8.88;7.88;;;;;;;16.55;100.00;97056.22;5063625;28;20039;-61
2021/06/18 00:38:38;;;;;;;8.65;6.85;;;;;;;16.45;100.00;97045.88;5064105;28;20029;-62
2021/06/18 00:41:04;;;;;;;12.75;7.93;;;;;;;16.40;100.00;97043.50;5063492;28;20025;-62
2021/06/18 00:43:30;;;;;;;11.98;7.57;;;;;;;16.33;100.00;97043.53;5045613;28;20506;-62
2021/06/18 00:45:55;;;;;;;9.07;6.80;;;;;;;16.40;100.00;97037.13;5063538;28;20032;-62
2021/06/18 00:48:22;;;;;;;7.05;6.35;;;;;;;14.60;100.00;96757.94;5064218;28;20570;-61
2021/06/18 00:50:48;;;;;;;9.82;6.90;;;;;;;16.49;100.00;97040.28;5063164;28;20060;-62
2021/06/18 00:53:15;;;;;;;7.57;6.75;;;;;;;16.05;100.00;96971.03;5063651;28;20138;-61
2021/06/18 00:55:41;;;;;;;10.90;7.15;;;;;;;16.29;100.00;97034.41;5063128;28;20128;-63
2021/06/18 00:58:08;;;;;;;12.68;6.75;;;;;;;15.34;100.00;96874.81;5045096;28;20036;-61
2021/06/18 01:00:33;;;;;;;8.15;6.45;;;;;;;16.43;100.00;97037.09;5063068;28;20522;-61
2021/06/18 01:03:00;;;;;;;9.60;5.68;;;;;;;16.50;100.00;97031.47;5063518;28;20043;-64
2021/06/18 01:05:27;;;;;;;7.82;5.25;;;;;;;16.20;100.00;97006.06;5044902;28;20036;-62
2021/06/18 01:08:01;;;;;;;11.02;5.65;;;;;;;16.22;100.00;97034.41;5063870;28;20067;-63
2021/06/18 01:10:35;;;;;;;12.07;5.72;;;;;;;16.10;100.00;97023.72;5062901;28;20106;-61
2021/06/18 01:13:24;;;;;;;14.35;6.78;;;;;;;16.13;100.00;97025.69;5063359;28;20055;-61
2021/06/18 01:16:14;;;;;;;11.55;6.75;;;;;;;15.81;100.00;96988.72;5062683;28;20033;-61
2021/06/18 01:18:46;;;;;;;8.02;6.50;;;;;;;16.14;100.00;97035.66;5063452;28;20032;-62
2021/06/18 01:21:20;;;;;;;8.55;6.40;;;;;;;16.22;100.00;97031.63;5062955;28;20040;-62
2021/06/18 01:24:03;;;;;;;9.23;7.10;;;;;;;15.95;100.00;96988.63;5045408;28;20050;-62
2021/06/18 01:26:42;;;;;;;10.57;7.32;;;;;;;15.80;100.00;96959.19;5044441;28;20064;-61
2021/06/18 01:29:08;;;;;;;8.70;7.25;;;;;;;16.16;100.00;97024.88;5044919;28;20044;-62
2021/06/18 01:31:41;;;;;;;10.75;6.55;;;;;;;16.16;100.00;97026.88;5044755;28;20043;-61
2021/06/18 01:34:15;;;;;;;13.90;6.97;;;;;;;16.13;100.00;97028.47;5044582;28;20457;-62
2021/06/18 01:36:48;;;;;;;8.10;6.25;;;;;;;16.11;100.00;97025.28;5067025;28;20266;-61
2021/06/18 01:39:16;;;;;;;14.23;7.00;;;;;;;16.17;100.00;97018.06;5048987;28;20027;-61
2021/06/18 01:41:43;;;;;;;13.95;6.90;;;;;;;15.69;100.00;96947.28;5048424;28;20041;-62
2021/06/18 01:44:09;;;;;;;8.48;5.97;;;;;;;16.25;100.00;97036.41;5067097;28;20045;-61
2021/06/18 01:46:37;;;;;;;9.57;5.60;;;;;;;15.97;100.00;96997.41;5066876;28;20089;-62
2021/06/18 01:49:06;;;;;;;7.97;5.07;;;;;;;16.09;100.00;97032.50;5066940;28;20036;-62
2021/06/18 01:51:33;;;;;;;13.43;5.85;;;;;;;15.85;100.00;96986.72;5048299;28;20524;-62
2021/06/18 01:54:01;;;;;;;5.80;4.07;;;;;;;16.09;100.00;97033.28;5048412;28;20043;-62
2021/06/18 01:56:28;;;;;;;8.80;5.53;;;;;;;15.97;100.00;97036.53;5066488;28;20032;-62
2021/06/18 01:58:57;;;;;;;9.65;5.47;;;;;;;15.94;100.00;97025.38;5066837;28;20453;-61
2021/06/18 02:01:26;;;;;;;9.45;5.38;;;;;;;16.00;100.00;97038.50;5048506;28;20434;-61
2021/06/18 02:03:52;;;;;;;12.75;5.72;;;;;;;15.87;100.00;97042.94;5066779;28;20036;-61
2021/06/18 02:06:21;;;;;;;18.02;8.07;;;;;;;15.24;100.00;96992.84;5048345;28;20143;-62
2021/06/18 02:08:51;;;;;;;8.82;6.82;;;;;;;15.66;100.00;97031.88;5048381;28;20056;-61
2021/06/18 02:11:17;;;;;;;15.82;6.10;;;;;;;15.56;100.00;97010.34;5066591;28;20502;-61
2021/06/18 02:13:45;;;;;;;13.57;6.13;;;;;;;15.72;100.00;97016.28;5048262;28;20114;-64
2021/06/18 02:16:15;;;;;;;9.57;5.43;;;;;;;15.83;100.00;97035.78;5047455;28;20045;-62
2021/06/18 02:18:42;;;;;;;6.57;5.07;;;;;;;15.81;100.00;97055.75;5066659;28;20032;-62
2021/06/18 02:21:09;;;;;;;6.93;4.88;;;;;;;14.90;100.00;96905.25;5047651;28;20067;-62
2021/06/18 02:23:35;;;;;;;7.05;5.00;;;;;;;15.82;100.00;97050.97;5048012;28;20050;-64
2021/06/18 02:26:04;;;;;;;8.05;5.07;;;;;;;15.83;100.00;97047.78;5047371;28;20052;-63
2021/06/18 02:28:32;;;;;;;8.63;5.40;;;;;;;15.79;100.00;97046.97;5066041;28;20044;-64
2021/06/18 02:30:58;;;;;;;6.03;4.85;;;;;;;15.76;100.00;97058.94;5047451;28;20125;-63
2021/06/18 02:33:24;;;;;;;6.85;4.35;;;;;;;15.21;100.00;96973.34;5047682;28;20163;-61
2021/06/18 02:35:49;;;;;;;6.10;4.70;;;;;;;15.72;100.00;97047.00;5065292;28;20039;-63
2021/06/18 02:38:15;;;;;;;7.88;5.63;;;;;;;15.29;100.00;96995.22;5066091;28;20037;-61
2021/06/18 02:40:42;;;;;;;16.08;6.05;;;;;;;15.40;100.00;97051.06;5066252;28;20036;-61
2021/06/18 02:43:08;;;;;;;9.75;5.20;;;;;;;15.39;100.00;97053.06;5047426;28;20032;-61
2021/06/18 02:45:34;;;;;;;6.78;5.00;;;;;;;14.90;100.00;96963.81;5064955;28;20043;-64
2021/06/18 02:48:14;;;;;;;13.30;6.03;;;;;;;15.48;100.00;97047.88;5065630;28;20036;-62
2021/06/18 02:51:16;;;;;;;13.43;5.88;;;;;;;15.44;100.00;97047.09;5047511;28;20521;-62
2021/06/18 02:53:50;;;;;;;6.03;5.07;;;;;;;15.30;100.00;97030.31;5065465;28;20064;-61
2021/06/18 02:56:27;;;;;;;8.57;5.05;;;;;;;15.24;100.00;97031.91;5065553;28;20568;-62
2021/06/18 02:59:05;;;;;;;9.00;4.75;;;;;;;15.29;100.00;97034.31;5047613;28;20119;-62
2021/06/18 03:01:35;;;;;;;6.00;4.55;;;;;;;15.30;100.00;97035.88;5065354;28;20040;-64
2021/06/18 03:04:01;;;;;;;6.30;4.25;;;;;;;15.17;100.00;97031.94;5065417;28;20571;-63
2021/06/18 03:06:30;;;;;;;12.63;6.35;;;;;;;15.25;100.00;97043.88;5064779;28;20041;-62
2021/06/18 03:08:59;;;;;;;10.05;5.15;;;;;;;15.12;100.00;97018.38;5047228;28;20146;-61
2021/06/18 03:11:29;;;;;;;8.82;4.45;;;;;;;15.05;100.00;96980.13;5065503;28;20039;-62
2021/06/18 03:13:58;;;;;;;9.18;5.05;;;;;;;15.53;100.00;97039.09;5065251;28;20046;-63
2021/06/18 03:16:27;;;;;;;9.95;4.47;;;;;;;15.16;100.00;96988.47;5047096;28;20028;-62
2021/06/18 03:18:55;;;;;;;11.32;5.03;;;;;;;15.48;100.00;97042.28;5047030;28;20047;-61
2021/06/18 03:21:21;;;;;;;7.70;4.60;;;;;;;15.25;100.00;96983.28;5064827;28;20037;-62
2021/06/18 03:23:48;;;;;;;13.20;4.18;;;;;;;15.69;100.00;97053.41;5064751;28;20042;-63
2021/06/18 03:26:16;;;;;;;7.88;4.13;;;;;;;15.24;100.00;96964.94;5064443;28;20082;-62
2021/06/18 03:28:42;;;;;;;6.35;3.80;;;;;;;15.51;100.00;96994.00;5046669;28;20056;-62
2021/06/18 03:31:10;;;;;;;9.15;3.83;;;;;;;15.73;100.00;97037.41;5064660;28;20042;-62
2021/06/18 03:33:36;;;;;;;6.30;3.45;;;;;;;15.90;100.00;97036.56;5064689;28;20111;-61
2021/06/18 03:36:02;;;;;;;7.95;4.20;;;;;;;15.44;100.00;96963.34;5064572;28;20124;-62
2021/06/18 03:38:29;;;;;;;8.13;4.47;;;;;;;15.81;100.00;97030.59;5046509;28;20041;-61
2021/06/18 03:40:55;;;;;;;7.65;4.07;;;;;;;15.62;100.00;96986.41;5046468;28;20127;-63
2021/06/18 03:43:22;;;;;;;10.27;3.63;;;;;;;15.62;100.00;96991.97;5046421;28;20044;-64
2021/06/18 03:45:53;;;;;;;7.28;4.03;;;;;;;15.89;100.00;97011.81;5064129;28;20478;-62
2021/06/18 03:48:20;;;;;;;9.55;4.40;;;;;;;15.92;100.00;97028.56;5046158;28;20494;-60
2021/06/18 03:50:46;;;;;;;9.07;4.60;;;;;;;15.94;100.00;97028.97;5046331;28;20467;-61
2021/06/18 03:53:14;;;;;;;8.50;4.68;;;;;;;16.00;100.00;97035.72;5064673;28;20039;-61
2021/06/18 03:55:40;;;;;;;11.27;4.85;;;;;;;16.12;100.00;97035.25;5064368;28;20037;-62
2021/06/18 03:58:07;;;;;;;8.63;4.15;;;;;;;16.25;100.00;97036.41;5063341;28;20040;-62
2021/06/18 04:00:36;;;;;;;7.32;3.90;;;;;;;16.38;100.00;97040.31;5045787;28;20037;-61
2021/06/18 04:03:05;;;;;;;9.85;4.57;;;;;;;16.03;98.75;96973.44;5063903;28;20029;-61
2021/06/18 04:05:31;;;;;;;6.28;3.67;;;;;;;16.22;100.00;97003.66;5045647;28;20128;-62
2021/06/18 04:25:25;;;;;;;6.80;4.15;;;;;;;16.92;94.05;96956.84;5142695;27;20380;-62
2021/06/18 04:27:53;;;;;;;7.72;4.38;;;;;;;17.30;95.41;97026.47;5123370;27;20586;-60
2021/06/18 04:30:18;;;;;;;7.10;4.90;;;;;;;17.13;96.50;97027.44;5122753;27;20119;-61
2021/06/18 04:32:44;;;;;;;7.25;5.22;;;;;;;17.01;96.36;96999.91;5122906;27;20473;-61
2021/06/18 04:35:10;;;;;;;6.85;4.30;;;;;;;17.20;96.93;97023.78;5141297;27;20184;-61
2021/06/18 04:37:37;;;;;;;11.55;4.90;;;;;;;17.24;95.95;97030.13;5123156;27;20026;-62
2021/06/18 07:28:59;;;;;;;12.00;7.90;;;;;;;21.23;97.50;96985.09;5086107;27;20140;-63
2021/06/18 07:31:24;;;;;;;10.02;7.55;;;;;;;21.30;96.67;96982.13;5081474;28;20039;-63
2021/06/18 07:33:50;;;;;;;12.80;8.00;;;;;;;21.29;98.41;96980.53;5064511;28;20510;-62
2021/06/18 07:36:15;;;;;;;10.25;9.10;;;;;;;21.19;100.00;96981.59;5067069;28;20032;-67
2021/06/18 07:38:42;;;;;;;10.30;8.60;;;;;;;21.06;98.93;96988.38;5081561;28;20036;-64
2021/06/18 07:41:08;;;;;;;11.77;8.38;;;;;;;20.78;100.00;96998.28;5095795;28;20027;-64
2021/06/18 07:43:34;;;;;;;12.02;9.32;;;;;;;20.43;100.00;96990.66;5087043;28;20050;-63
2021/06/18 07:46:00;;;;;;;16.17;10.95;;;;;;;19.19;100.00;96877.13;5091609;28;20023;-69
2021/06/18 07:48:27;;;;;;;13.18;9.80;;;;;;;20.17;100.00;96978.34;5079339;28;20040;-67
2021/06/18 07:50:52;;;;;;;11.70;9.90;;;;;;;20.31;100.00;96960.38;5084027;28;20280;-65
2021/06/18 07:53:18;;;;;;;12.45;9.13;;;;;;;20.55;100.00;96987.94;5095934;28;20140;-67
2021/06/18 07:55:43;;;;;;;12.05;9.15;;;;;;;20.47;100.00;96985.75;5086472;28;20080;-63
2021/06/18 07:58:10;;;;;;;8.88;7.97;;;;;;;20.27;100.00;96920.28;5098727;28;20038;-61
2021/06/18 08:00:35;;;;;;;13.90;9.23;;;;;;;20.67;100.00;96952.69;5079641;28;20066;-67
2021/06/18 08:03:02;;;;;;;11.52;9.38;;;;;;;20.86;100.00;96977.19;5082062;28;20126;-61
2021/06/18 08:05:28;;;;;;;17.27;11.60;;;;;;;20.72;100.00;96946.56;5100069;28;20033;-65
2021/06/18 08:07:55;;;;;;;14.80;10.80;;;;;;;20.55;100.00;96942.16;5096784;28;20101;-61
2021/06/18 08:10:22;;;;;;;21.73;11.75;;;;;;;20.90;100.00;96980.69;5100128;28;20042;-60
2021/06/18 08:12:47;;;;;;;23.58;13.52;;;;;;;20.47;100.00;96927.44;5081807;28;20057;-62
2021/06/18 08:15:13;;;;;;;11.27;9.48;;;;;;;20.99;100.00;96976.06;5095144;28;20042;-63
2021/06/18 08:17:39;;;;;;;11.90;8.05;;;;;;;20.90;100.00;96983.50;5080109;28;20067;-62
2021/06/18 08:20:05;;;;;;;9.05;8.20;;;;;;;20.62;100.00;96950.41;5064568;28;20486;-66
2021/06/18 08:22:31;;;;;;;10.02;8.55;;;;;;;20.80;100.00;96981.75;5080455;28;20497;-65
2021/06/18 08:24:57;;;;;;;11.95;8.35;;;;;;;20.37;100.00;96914.41;5079534;28;20038;-61
2021/06/18 08:27:22;;;;;;;10.30;8.15;;;;;;;20.88;100.00;96977.53;5058559;28;20084;-61
2021/06/18 08:29:48;;;;;;;9.32;7.53;;;;;;;20.53;100.00;96989.63;5077110;28;20054;-64
2021/06/18 08:32:13;;;;;;;8.27;7.43;;;;;;;20.05;100.00;96840.41;5069062;28;20032;-66
2021/06/18 08:34:39;;;;;;;7.47;6.80;;;;;;;20.98;100.00;96987.75;5076138;28;20050;-69
2021/06/18 08:37:05;;;;;;;8.57;7.75;;;;;;;20.92;100.00;96983.88;5082151;28;20515;-61
2021/06/18 08:39:31;;;;;;;8.55;7.03;;;;;;;20.78;99.54;96933.53;5065880;28;20032;-65
2021/06/18 08:41:57;;;;;;;9.98;6.90;;;;;;;19.51;100.00;96762.13;5046932;28;20129;-71
2021/06/18 08:44:22;;;;;;;7.90;7.10;;;;;;;20.27;99.30;96855.56;5066733;28;20041;-67
2021/06/18 08:46:48;;;;;;;7.25;6.00;;;;;;;21.02;94.64;96983.63;5063790;28;20042;-63
2021/06/18 08:49:14;;;;;;;8.18;6.50;;;;;;;20.99;94.73;96961.19;5077947;28;20036;-64
2021/06/18 08:51:40;;;;;;;6.93;6.22;;;;;;;20.55;92.67;96897.13;5068380;28;20043;-66
2021/06/18 08:54:05;;;;;;;9.20;6.22;;;;;;;21.10;94.18;96987.06;5070266;28;20036;-66
2021/06/18 08:56:31;;;;;;;7.32;5.70;;;;;;;20.89;93.17;96903.09;5081398;28;20040;-68
2021/06/18 08:58:57;;;;;;;8.23;5.47;;;;;;;20.34;93.52;96807.59;5062530;28;20621;-63
2021/06/18 09:01:22;;;;;;;7.10;6.03;;;;;;;21.65;92.49;96986.81;5075427;28;20081;-68
2021/06/18 09:03:49;;;;;;;7.30;6.60;;;;;;;21.07;92.64;96880.88;5079801;28;20078;-69
2021/06/18 09:06:18;;;;;;;8.52;7.22;;;;;;;22.10;89.10;96984.75;5073904;28;20088;-61
2021/06/18 09:08:44;;;;;;;7.95;6.55;;;;;;;22.12;89.99;96987.13;5074424;28;20498;-68
2021/06/18 09:11:10;;;;;;;5.70;5.20;;;;;;;21.70;84.35;96927.06;5078555;28;20033;-67
2021/06/18 09:13:36;;;;;;;6.57;5.00;;;;;;;22.43;85.67;96980.50;5075358;28;20419;-68
2021/06/18 09:16:03;;;;;;;7.68;6.10;;;;;;;22.36;85.59;96966.63;5065147;28;20561;-68
2021/06/18 09:18:40;;;;;;;6.47;5.88;;;;;;;23.04;83.86;96968.13;5066403;28;20123;-64
2021/06/18 09:21:23;;;;;;;10.73;7.00;;;;;;;23.06;83.08;96972.06;5083471;28;20691;-65
2021/06/18 09:23:55;;;;;;;7.30;6.60;;;;;;;23.14;85.45;96959.28;5052348;28;20563;-64
2021/06/18 09:26:26;;;;;;;7.97;6.85;;;;;;;22.99;81.66;96904.50;5059943;28;20042;-62
2021/06/18 09:29:18;;;;;;;10.23;8.20;;;;;;;23.68;80.80;96945.69;5064902;28;20507;-69
2021/06/18 09:31:54;;;;;;;7.65;6.95;;;;;;;23.94;81.55;96946.38;5039899;28;20098;-69
2021/06/18 09:37:39;;;;;;;6.63;5.47;;;;;;;23.65;78.41;96886.41;5064855;28;20051;-69
2021/06/18 09:40:10;;;;;;;5.68;4.93;;;;;;;24.02;78.27;96947.72;5064351;28;20047;-62
2021/06/18 09:43:02;;;;;;;10.10;5.50;;;;;;;24.12;80.18;96952.19;5065020;28;20036;-70
2021/06/18 09:45:36;;;;;;;6.05;5.32;;;;;;;24.09;76.37;96953.09;5064265;28;20698;-69
2021/06/18 09:48:09;;;;;;;5.70;5.30;;;;;;;24.08;75.92;96923.22;5054547;28;20031;-67
2021/06/18 09:50:37;;;;;;;5.75;5.25;;;;;;;23.67;75.26;96932.00;5061655;28;20510;-64
2021/06/18 09:53:22;;;;;;;7.13;5.97;;;;;;;23.74;75.28;96931.75;5071843;28;20036;-68
2021/06/18 09:56:02;;;;;;;7.15;5.47;;;;;;;23.86;73.76;96945.06;5060679;28;20052;-66
2021/06/18 09:58:41;;;;;;;7.28;5.72;;;;;;;23.80;73.94;96941.22;5065766;28;20143;-67
2021/06/18 10:01:22;;;;;;;6.45;4.90;;;;;;;23.62;74.08;96887.34;5071588;28;20035;-66
2021/06/18 10:04:07;;;;;;;5.55;5.05;;;;;;;23.72;72.86;96894.66;5069928;28;20211;-60
2021/06/18 10:06:34;;;;;;;8.90;5.00;;;;;;;23.99;69.60;96925.19;5068981;28;20465;-66
2021/06/18 10:09:01;;;;;;;5.13;4.72;;;;;;;23.97;70.35;96897.38;5057925;28;20031;-61
2021/06/18 10:11:28;;;;;;;5.28;4.78;;;;;;;24.17;69.69;96920.44;5070558;28;20371;-62
2021/06/18 10:13:54;;;;;;;5.05;4.65;;;;;;;24.01;71.77;96872.56;5081779;28;20040;-63
2021/06/18 10:16:22;;;;;;;4.97;4.47;;;;;;;24.30;69.13;96901.31;5063817;28;20043;-65
2021/06/18 10:18:48;;;;;;;6.40;3.90;;;;;;;24.51;67.09;96906.16;5064628;28;20050;-63
2021/06/18 10:21:20;;;;;;;5.78;4.28;;;;;;;24.63;67.32;96899.59;5075170;28;20434;-63
2021/06/18 10:23:49;;;;;;;5.00;4.60;;;;;;;24.87;65.66;96897.81;5060403;28;20512;-65
2021/06/18 10:26:15;;;;;;;4.90;4.40;;;;;;;24.81;64.49;96884.72;5062775;28;20028;-63
2021/06/18 10:28:52;;;;;;;5.80;5.30;;;;;;;25.00;65.20;96898.47;5045124;28;20052;-63
2021/06/18 10:31:28;;;;;;;4.78;4.38;;;;;;;25.04;63.81;96876.44;5050710;28;20034;-59
2021/06/18 10:34:07;;;;;;;5.40;4.93;;;;;;;25.08;63.96;96888.44;5077961;28;20046;-61
2021/06/18 10:36:34;;;;;;;5.13;4.60;;;;;;;25.01;64.41;96893.59;5057239;28;20044;-64
2021/06/18 10:39:05;;;;;;;4.47;4.15;;;;;;;25.23;63.55;96917.72;5055642;28;20111;-63
2021/06/18 10:41:31;;;;;;;5.05;4.50;;;;;;;24.72;66.79;96814.63;5079381;28;20036;-61
2021/06/18 10:43:58;;;;;;;4.65;4.35;;;;;;;25.52;63.88;96882.50;5083416;28;20133;-65
2021/06/18 10:46:32;;;;;;;4.47;4.07;;;;;;;25.53;57.92;96884.06;5067240;28;20063;-65
2021/06/18 10:49:08;;;;;;;4.72;4.32;;;;;;;25.55;57.96;96870.97;5080342;28;20483;-64
2021/06/18 10:51:45;;;;;;;6.25;4.38;;;;;;;25.38;58.25;96849.88;5048068;28;20125;-67
2021/06/18 10:54:45;;;;;;;5.28;4.88;;;;;;;25.11;65.35;96904.50;5070942;28;20040;-67
2021/06/18 10:57:18;;;;;;;4.70;4.40;;;;;;;23.56;68.43;96773.22;5046563;28;20224;-65
2021/06/18 10:59:55;;;;;;;5.05;4.57;;;;;;;23.91;69.29;96873.72;5049727;28;20511;-64
2021/06/18 11:02:20;;;;;;;6.55;4.72;;;;;;;23.88;68.93;96880.31;5075161;28;20105;-66
2021/06/18 11:04:46;;;;;;;5.00;4.60;;;;;;;24.03;72.80;96881.34;5048682;28;20517;-67
2021/06/18 11:07:33;;;;;;;11.88;5.65;;;;;;;23.89;73.72;96881.88;5071000;28;20029;-60
2021/06/18 11:10:01;;;;;;;7.15;5.78;;;;;;;23.51;72.93;96872.78;5045846;28;20430;-65
2021/06/18 11:12:27;;;;;;;5.50;5.00;;;;;;;23.44;74.54;96873.84;5045637;28;20677;-66
2021/06/18 11:15:07;;;;;;;6.38;5.70;;;;;;;23.00;76.79;96882.69;5073658;28;20031;-60
2021/06/18 11:17:45;;;;;;;6.72;5.88;;;;;;;22.70;81.26;96877.66;5069274;28;20068;-67
2021/06/18 11:20:15;;;;;;;5.55;5.00;;;;;;;22.02;84.85;96875.38;5073056;28;20036;-61
2021/06/18 11:22:55;;;;;;;6.47;5.97;;;;;;;22.02;89.66;96878.97;5071217;28;20113;-67
2021/06/18 11:25:43;;;;;;;7.10;6.40;;;;;;;21.58;93.50;96874.22;5058375;28;20543;-67
2021/06/18 11:28:20;;;;;;;6.82;5.75;;;;;;;21.45;95.90;96875.44;5043445;28;20057;-60
2021/06/18 11:31:08;;;;;;;10.05;6.35;;;;;;;21.56;97.21;96879.50;5068814;28;20487;-68
2021/06/18 11:33:39;;;;;;;7.72;6.25;;;;;;;21.82;97.35;96878.38;5074514;28;20554;-61
2021/06/18 11:36:25;;;;;;;11.80;10.63;;;;;;;22.08;99.13;96877.16;5076372;28;20392;-67
2021/06/18 11:38:56;;;;;;;9.90;8.25;;;;;;;22.19;97.65;96874.03;5055535;28;20141;-67
2021/06/18 11:41:31;;;;;;;6.97;6.28;;;;;;;22.29;96.27;96890.63;5066974;28;20503;-65
2021/06/18 11:44:01;;;;;;;6.22;5.63;;;;;;;22.12;91.45;96875.06;5051164;28;20104;-64
2021/06/18 11:46:29;;;;;;;5.40;4.90;;;;;;;21.90;87.14;96885.41;5076914;28;20043;-66
2021/06/18 11:48:57;;;;;;;5.68;5.15;;;;;;;21.65;86.71;96884.50;5066717;28;20048;-66
2021/06/18 11:51:24;;;;;;;7.15;5.40;;;;;;;21.53;88.75;96888.88;5062872;28;20044;-66
2021/06/18 11:53:50;;;;;;;5.68;4.60;;;;;;;21.32;88.65;96878.22;5061892;28;20032;-63
2021/06/18 11:56:16;;;;;;;5.88;5.43;;;;;;;21.11;90.95;96864.69;5065956;28;20040;-63
2021/06/18 11:58:44;;;;;;;7.32;4.78;;;;;;;20.91;91.15;96847.13;5068382;28;20040;-71
2021/06/18 12:01:20;;;;;;;6.65;6.07;;;;;;;20.87;96.38;96852.03;5053959;28;20622;-63
2021/06/18 12:03:55;;;;;;;5.80;5.20;;;;;;;20.45;94.35;96785.59;5079028;28;20529;-67
2021/06/18 12:06:25;;;;;;;7.93;5.93;;;;;;;20.77;98.72;96892.53;5077965;28;20040;-63
2021/06/18 12:09:18;;;;;;;5.97;5.47;;;;;;;20.03;97.62;96786.63;5075773;28;20896;-62
2021/06/18 12:11:44;;;;;;;11.75;6.55;;;;;;;20.62;97.46;96891.28;5052200;28;20414;-68
2021/06/18 12:14:11;;;;;;;7.53;6.72;;;;;;;20.28;98.55;96849.50;5047466;28;20055;-69
2021/06/18 12:16:40;;;;;;;7.75;6.90;;;;;;;20.51;100.00;96894.38;5047890;28;20054;-68
2021/06/18 12:19:26;;;;;;;5.68;5.10;;;;;;;20.42;100.00;96899.03;5069678;28;20024;-63
2021/06/18 12:22:12;;;;;;;8.52;6.53;;;;;;;20.35;100.00;96893.56;5053421;28;20131;-66
2021/06/18 12:24:42;;;;;;;7.75;6.78;;;;;;;20.34;100.00;96892.00;5066990;28;20032;-66
2021/06/18 12:27:14;;;;;;;8.07;7.35;;;;;;;20.24;100.00;96876.13;5063585;28;20055;-71
2021/06/18 12:29:44;;;;;;;12.48;7.93;;;;;;;20.39;100.00;96888.66;5057820;28;20366;-70
2021/06/18 12:32:11;;;;;;;8.65;7.43;;;;;;;20.37;100.00;96891.09;5063840;28;20451;-69
2021/06/18 12:34:49;;;;;;;14.18;8.45;;;;;;;20.26;100.00;96884.94;5065864;28;20033;-69
2021/06/18 12:37:15;;;;;;;11.10;8.27;;;;;;;20.45;100.00;96889.72;5047236;28;20040;-69
2021/06/18 12:39:49;;;;;;;10.30;8.80;;;;;;;20.53;100.00;96882.69;5065928;28;20475;-66
2021/06/18 12:42:31;;;;;;;10.18;9.05;;;;;;;20.50;100.00;96870.25;5065712;28;20035;-65
2021/06/18 12:45:22;;;;;;;12.27;9.43;;;;;;;20.71;100.00;96885.84;5065551;28;20036;-70
2021/06/18 12:47:51;;;;;;;10.18;8.25;;;;;;;20.76;100.00;96883.28;5056950;28;20060;-65
2021/06/18 12:50:28;;;;;;;10.13;8.20;;;;;;;20.76;100.00;96896.56;5065284;28;20032;-64
2021/06/18 12:52:57;;;;;;;11.15;8.27;;;;;;;20.67;100.00;96871.06;5065422;28;20778;-64
2021/06/18 12:55:35;;;;;;;10.13;7.97;;;;;;;20.90;100.00;96890.56;5064949;28;20570;-70
2021/06/18 12:58:18;;;;;;;12.12;8.91;;;;;;;20.86;100.00;96884.25;4499821;28;10001986;-69
2021/06/18 13:00:59;;;;;;;10.73;8.65;;;;;;;20.66;100.00;96852.59;1011562;29;10002137;-69
2021/06/18 13:03:37;;;;;;;8.95;7.47;;;;;;;20.90;100.00;96884.94;4986830;28;20099;-69
2021/06/18 13:06:05;;;;;;;13.57;8.63;;;;;;;20.16;100.00;96745.34;5016006;28;20033;-65
2021/06/18 13:08:34;;;;;;;10.63;7.38;;;;;;;21.05;100.00;96869.28;5012455;28;20120;-65
2021/06/18 13:11:00;;;;;;;9.48;8.55;;;;;;;20.51;100.00;96775.38;5013366;28;20030;-68
2021/06/18 13:13:29;;;;;;;10.85;8.65;;;;;;;20.58;100.00;96789.28;5005124;28;20156;-70
2021/06/18 13:16:18;;;;;;;8.45;7.68;;;;;;;20.61;100.00;96794.03;5013118;28;20048;-70
2021/06/18 13:18:56;;;;;;;7.88;7.10;;;;;;;20.42;100.00;96769.59;5002849;28;20100;-65
2021/06/18 13:21:23;;;;;;;7.88;6.95;;;;;;;20.72;100.00;96825.50;5003874;28;20026;-62
2021/06/18 13:23:50;;;;;;;8.07;7.10;;;;;;;20.99;97.83;96862.63;5004170;28;20433;-62
2021/06/18 13:26:15;;;;;;;7.75;6.53;;;;;;;21.03;97.39;96860.50;5015435;28;20037;-63
2021/06/18 13:28:46;;;;;;;11.13;7.05;;;;;;;20.67;97.48;96837.28;5005061;28;20071;-67
2021/06/18 13:31:23;;;;;;;9.10;6.75;;;;;;;20.92;97.87;96859.94;5014510;28;20033;-69
2021/06/18 13:33:53;;;;;;;12.90;9.57;;;;;;;20.84;100.00;96859.34;5022796;28;20037;-64
2021/06/18 13:36:28;;;;;;;10.32;8.48;;;;;;;20.63;100.00;96825.31;5022410;28;20037;-67
2021/06/18 13:38:54;;;;;;;13.68;9.77;;;;;;;20.27;100.00;96751.47;5024583;28;20045;-62
2021/06/18 13:41:31;;;;;;;10.15;9.23;;;;;;;20.92;100.00;96848.69;5016223;28;20032;-67
2021/06/18 13:43:57;;;;;;;13.20;8.85;;;;;;;20.92;100.00;96851.50;5004623;28;20045;-66
2021/06/18 13:46:22;;;;;;;9.75;8.80;;;;;;;20.91;100.00;96852.75;5004739;28;20088;-67
2021/06/18 13:48:48;;;;;;;9.90;8.82;;;;;;;20.94;100.00;96846.22;5005188;28;20040;-66
2021/06/18 13:51:15;;;;;;;8.43;6.63;;;;;;;20.70;100.00;96791.34;5004862;28;20497;-67
2021/06/18 13:53:40;;;;;;;7.15;6.40;;;;;;;20.89;98.56;96843.94;5002860;28;20033;-66
2021/06/18 13:56:06;;;;;;;9.35;7.22;;;;;;;20.96;100.00;96843.75;5003122;28;20414;-66
2021/06/18 13:58:31;;;;;;;8.00;7.20;;;;;;;20.93;100.00;96836.19;5004434;28;20121;-65
2021/06/18 14:00:57;;;;;;;8.13;6.55;;;;;;;20.91;100.00;96847.13;5004575;28;20472;-66
2021/06/18 14:06:44;;;;;;;7.28;6.10;;;;;;;19.15;98.27;96592.00;5004372;28;20044;-65
2021/06/18 14:09:10;;;;;;;7.55;6.70;;;;;;;20.54;100.00;96823.13;5004842;28;20026;-66
2021/06/18 14:11:35;;;;;;;10.75;8.73;;;;;;;20.63;100.00;96842.19;5004280;28;20091;-66
2021/06/18 14:14:04;;;;;;;10.27;9.05;;;;;;;20.14;100.00;96770.31;5002894;28;20088;-66
2021/06/18 14:16:52;;;;;;;11.32;9.45;;;;;;;20.46;100.00;96792.78;5004116;28;20500;-65
2021/06/18 14:19:18;;;;;;;9.88;7.82;;;;;;;20.86;100.00;96844.81;5002721;28;20424;-67
2021/06/18 14:21:43;;;;;;;10.23;9.00;;;;;;;20.77;100.00;96850.31;5003781;28;20037;-66
2021/06/18 14:24:09;;;;;;;10.80;9.70;;;;;;;20.67;100.00;96828.84;5004527;28;20507;-66
2021/06/18 14:26:35;;;;;;;10.10;7.93;;;;;;;20.45;100.00;96802.47;5003347;28;20042;-67
2021/06/18 14:29:00;;;;;;;9.93;7.95;;;;;;;20.70;100.00;96842.84;5002753;28;20054;-67
2021/06/18 14:31:26;;;;;;;10.40;8.90;;;;;;;20.74;100.00;96831.47;5018798;28;20085;-66
2021/06/18 14:33:51;;;;;;;10.57;8.95;;;;;;;20.23;100.00;96733.91;5018671;28;20034;-66
2021/06/18 14:36:17;;;;;;;13.43;10.57;;;;;;;20.92;100.00;96832.59;5003846;28;20061;-67
2021/06/18 14:38:42;;;;;;;14.02;11.48;;;;;;;21.02;100.00;96815.88;5003967;28;20037;-66
2021/06/18 14:41:09;;;;;;;14.20;10.25;;;;;;;20.89;100.00;96787.63;5004134;28;20041;-67
2021/06/18 14:43:34;;;;;;;9.50;8.20;;;;;;;21.14;100.00;96809.47;5004034;28;20683;-65
2021/06/18 14:45:59;;;;;;;8.77;7.25;;;;;;;21.07;100.00;96799.19;5003611;28;20116;-67
2021/06/18 14:48:25;;;;;;;9.20;7.20;;;;;;;21.20;100.00;96816.94;5018858;28;20496;-66
2021/06/18 14:50:51;;;;;;;7.82;7.03;;;;;;;21.11;100.00;96787.84;5018122;28;20057;-64